Time;durP1;ratioP1;P1;durP2;ratioP2;P2;SDS_P1;SDS_P2;PMS_P1;PMS_P2;Temp;Humidity;BMP_temperature;BMP_pressure;BME280_temperature;BME280_humidity;BME280_pressure;Samples;Min_cycle;Max_cycle;Signal;HPM_P1;HPM_P2
2023/06/17 00:02:20;;;;;;;3.40;2.17;;;21.50;97.10;;;21.69;45.28;101201.34;4921498;28;96607;-52
2023/06/17 00:04:47;;;;;;;3.50;2.60;;;21.50;96.60;;;21.67;45.29;101203.28;4914118;28;102774;-48
2023/06/17 00:07:12;;;;;;;2.90;2.10;;;21.50;96.90;;;21.68;45.49;101194.25;4913919;28;98148;-52
2023/06/17 00:09:41;;;;;;;2.00;1.63;;;21.50;97.10;;;21.68;45.50;101194.25;4919915;28;97202;-50
2023/06/17 00:12:08;;;;;;;2.50;2.20;;;21.50;97.10;;;21.68;45.04;101186.22;4937048;28;97332;-49
2023/06/17 00:14:34;;;;;;;2.77;1.90;;;21.50;96.20;;;21.68;45.46;101194.25;4914422;28;101598;-49
2023/06/17 00:17:00;;;;;;;2.53;2.07;;;21.50;97.00;;;21.67;45.40;101184.50;4904967;28;97336;-48
2023/06/17 00:19:28;;;;;;;2.43;1.97;;;21.50;96.80;;;21.69;45.44;101184.38;4923012;28;97038;-50
2023/06/17 00:21:54;;;;;;;2.17;1.80;;;21.50;97.00;;;21.68;45.38;101180.84;4913341;28;97490;-50
2023/06/17 00:24:20;;;;;;;2.47;1.80;;;21.50;97.00;;;21.69;45.47;101179.00;4929099;28;97941;-47
2023/06/17 00:26:47;;;;;;;2.97;1.90;;;21.50;97.00;;;21.70;45.17;101175.38;4924788;28;102592;-49
2023/06/17 00:29:12;;;;;;;5.87;2.33;;;21.50;96.50;;;21.68;44.46;101178.16;4918403;28;97184;-48
2023/06/17 00:31:39;;;;;;;4.23;2.60;;;21.50;95.90;;;21.67;45.06;101181.81;4930459;28;98541;-49
2023/06/17 00:34:04;;;;;;;4.83;2.80;;;21.50;96.60;;;21.66;44.96;101179.25;4924489;28;96974;-51
2023/06/17 00:36:30;;;;;;;4.43;2.50;;;21.40;96.40;;;21.62;45.53;101173.25;4915178;28;103071;-50
2023/06/17 00:38:56;;;;;;;2.17;1.27;;;21.40;97.00;;;21.57;45.23;101180.78;4927119;28;96585;-50
2023/06/17 00:41:22;;;;;;;2.87;2.07;;;21.30;97.40;;;21.58;45.39;101174.47;4911827;28;97093;-48
2023/06/17 00:43:48;;;;;;;5.23;1.83;;;21.30;96.80;;;21.56;45.72;101173.72;4917605;28;97479;-48
2023/06/17 00:46:36;;;;;;;3.33;2.50;;;21.30;97.60;;;21.58;45.54;101185.19;4928999;28;97033;-50
2023/06/17 00:49:03;;;;;;;2.00;1.60;;;21.30;96.70;;;21.56;46.05;101179.09;4906250;28;96866;-49
2023/06/17 00:51:32;;;;;;;3.77;2.57;;;21.30;97.70;;;21.57;45.26;101178.13;4939251;28;96875;-49
2023/06/17 00:53:59;;;;;;;4.20;2.43;;;21.40;97.00;;;21.55;45.07;101182.72;4900381;28;97302;-47
2023/06/17 00:56:27;;;;;;;2.33;1.73;;;21.40;96.80;;;21.57;45.84;101178.13;4932754;28;97375;-50
2023/06/17 00:58:54;;;;;;;4.67;2.50;;;21.40;97.60;;;21.58;45.69;101170.91;4915706;28;96828;-48
2023/06/17 01:01:20;;;;;;;2.63;1.70;;;21.40;97.00;;;21.56;45.51;101173.72;4930766;28;96840;-48
2023/06/17 01:03:46;;;;;;;2.27;1.87;;;21.40;96.70;;;21.55;45.91;101177.34;4932283;28;97381;-49
2023/06/17 01:06:33;;;;;;;3.17;2.20;;;21.30;97.80;;;21.56;45.49;101179.09;4947312;28;97716;-51
2023/06/17 01:09:06;;;;;;;5.10;2.43;;;21.40;96.90;;;21.52;46.01;101172.19;4924816;28;96636;-51
2023/06/17 01:11:33;;;;;;;3.37;2.50;;;21.30;97.10;;;21.40;45.04;101170.41;4937585;28;97131;-51
2023/06/17 01:14:00;;;;;;;4.30;2.63;;;21.10;96.90;;;21.36;45.13;101171.63;4930172;28;124350;-48
2023/06/17 01:16:27;;;;;;;4.13;2.07;;;21.00;97.20;;;21.29;46.54;101171.22;4918869;28;97416;-53
2023/06/17 01:18:53;;;;;;;3.60;2.90;;;20.90;98.00;;;21.28;46.31;101168.66;4918060;28;97408;-50
2023/06/17 01:21:22;;;;;;;2.50;1.87;;;20.90;98.00;;;21.28;46.61;101161.44;4932909;28;97429;-50
2023/06/17 01:23:53;;;;;;;4.00;2.00;;;20.90;98.80;;;21.30;46.53;101161.34;4906103;28;98733;-51
2023/06/17 01:26:21;;;;;;;1.83;1.53;;;21.00;98.60;;;21.33;46.61;101158.44;4918473;28;97001;-49
2023/06/17 01:28:48;;;;;;;3.10;2.07;;;21.10;98.70;;;21.35;46.61;101167.22;4907432;28;97291;-54
2023/06/17 01:31:18;;;;;;;2.60;2.00;;;21.10;98.20;;;21.36;46.41;101166.25;4915800;28;97135;-50
2023/06/17 01:33:49;;;;;;;2.30;1.80;;;21.10;98.00;;;21.36;46.68;101159.06;4945704;28;96952;-49
2023/06/17 01:36:25;;;;;;;2.23;1.70;;;21.10;98.90;;;21.42;46.48;101159.59;4934965;28;98220;-51
2023/06/17 01:39:03;;;;;;;2.00;1.73;;;21.20;98.40;;;21.44;46.31;101166.56;4925364;28;97241;-49
2023/06/17 01:41:40;;;;;;;4.30;2.90;;;21.30;98.00;;;21.39;45.58;101163.34;4910788;28;96963;-49
2023/06/17 01:44:09;;;;;;;3.27;2.10;;;21.10;97.30;;;21.32;46.45;101162.09;4922157;28;101842;-48
2023/06/17 01:46:35;;;;;;;3.83;3.00;;;21.00;98.30;;;21.30;46.70;101155.97;4925999;28;115978;-48
2023/06/17 01:49:02;;;;;;;1.73;1.63;;;20.90;98.40;;;21.29;46.97;101162.31;4923273;28;96904;-48
2023/06/17 01:51:27;;;;;;;3.70;2.37;;;20.90;99.00;;;21.30;46.53;101150.59;4950702;28;96683;-47
2023/06/17 01:53:53;;;;;;;3.07;1.93;;;21.00;98.20;;;21.27;46.89;101161.56;4932514;28;97078;-49
2023/06/17 01:56:19;;;;;;;5.47;2.90;;;20.90;98.70;;;21.24;46.66;101167.94;4928633;28;96965;-47
2023/06/17 01:58:45;;;;;;;3.33;1.97;;;20.90;98.20;;;21.23;47.07;101162.69;4936634;28;96710;-49
2023/06/17 02:01:11;;;;;;;3.07;1.90;;;20.90;99.20;;;21.23;47.13;101166.25;4921811;28;110625;-49
2023/06/17 02:03:38;;;;;;;2.67;1.90;;;20.90;99.20;;;21.24;46.92;101164.41;4948591;28;97577;-48
2023/06/17 02:06:04;;;;;;;3.10;2.00;;;20.90;98.90;;;21.22;47.14;101166.34;4929506;28;101393;-50
2023/06/17 02:08:32;;;;;;;3.17;2.20;;;20.90;98.70;;;21.20;46.70;101160.25;4924682;28;97086;-51
2023/06/17 02:10:57;;;;;;;1.83;1.67;;;20.90;98.70;;;21.18;47.22;101163.03;4915231;28;97959;-47
2023/06/17 02:13:23;;;;;;;2.00;1.77;;;20.80;99.10;;;21.19;47.22;101163.91;4910115;28;99156;-49
2023/06/17 02:15:49;;;;;;;3.40;1.90;;;20.90;99.30;;;21.19;47.04;101158.53;4925958;28;121408;-49
2023/06/17 02:18:15;;;;;;;5.63;2.00;;;20.90;99.00;;;21.19;46.97;101155.84;4929095;28;97157;-51
2023/06/17 02:20:40;;;;;;;3.53;1.87;;;20.90;99.30;;;21.22;46.95;101158.31;4932604;28;97482;-47
2023/06/17 02:23:07;;;;;;;2.77;2.23;;;20.90;98.90;;;21.21;46.79;101151.22;4913097;28;96871;-50
2023/06/17 02:25:33;;;;;;;2.00;1.50;;;20.90;98.40;;;21.22;47.03;101150.25;4919354;28;97168;-52
2023/06/17 02:27:59;;;;;;;3.03;2.17;;;20.90;99.40;;;21.25;46.95;101158.09;4904636;28;99841;-48
2023/06/17 02:30:25;;;;;;;3.00;2.00;;;21.00;99.30;;;21.28;47.15;101155.22;4934377;28;96835;-48
2023/06/17 02:32:51;;;;;;;1.60;1.40;;;21.00;99.00;;;21.30;46.97;101155.97;4928387;28;96677;-47
2023/06/17 02:35:17;;;;;;;1.93;1.60;;;21.10;99.10;;;21.33;46.88;101155.75;4927886;28;97847;-49
2023/06/17 02:37:43;;;;;;;2.27;1.80;;;21.10;99.00;;;21.36;46.74;101155.50;4911993;28;98652;-49
2023/06/17 02:40:10;;;;;;;2.13;1.70;;;21.20;98.90;;;21.37;47.01;101151.84;4915582;28;97376;-49
2023/06/17 02:42:36;;;;;;;3.27;2.10;;;21.20;99.00;;;21.38;46.75;101154.44;4921612;28;97115;-49
2023/06/17 02:45:04;;;;;;;2.33;1.80;;;21.20;98.70;;;21.39;46.76;101155.28;4919891;28;98680;-48
2023/06/17 02:47:30;;;;;;;2.30;1.60;;;21.20;99.00;;;21.39;46.87;101161.50;4931828;28;97177;-51
2023/06/17 02:49:56;;;;;;;3.17;1.70;;;21.20;98.90;;;21.42;46.49;101165.81;4919969;28;97003;-51
2023/06/17 02:52:22;;;;;;;2.40;1.43;;;21.20;98.90;;;21.43;46.58;101167.53;4925235;28;97290;-47
2023/06/17 02:54:50;;;;;;;2.80;1.83;;;21.20;98.70;;;21.39;46.59;101169.56;4905191;28;97126;-49
2023/06/17 02:57:16;;;;;;;2.80;2.00;;;21.20;98.80;;;21.38;46.59;101167.00;4925181;28;97860;-50
2023/06/17 02:59:42;;;;;;;2.83;1.80;;;21.10;98.90;;;21.39;46.78;101169.56;4879040;28;96977;-48
2023/06/17 03:02:08;;;;;;;2.10;1.70;;;21.10;99.00;;;21.43;46.66;101170.22;4930930;28;97432;-50
2023/06/17 03:04:35;;;;;;;1.63;1.47;;;21.20;99.00;;;21.45;46.59;101165.59;4925120;28;100814;-50
2023/06/17 03:07:05;;;;;;;2.20;1.50;;;21.30;98.80;;;21.45;46.77;101170.09;4910293;28;97540;-48
2023/06/17 03:09:31;;;;;;;1.87;1.50;;;21.30;98.70;;;21.40;46.49;101167.72;4913073;28;97321;-49
2023/06/17 03:11:59;;;;;;;2.33;1.70;;;21.20;98.20;;;21.36;46.75;101164.41;4907826;28;97022;-50
2023/06/17 03:14:25;;;;;;;2.73;2.17;;;21.10;98.90;;;21.35;46.93;101164.53;4908372;28;108419;-51
2023/06/17 03:16:51;;;;;;;2.87;2.10;;;21.10;99.00;;;21.33;46.97;101166.47;4934817;28;97153;-52
2023/06/17 03:19:17;;;;;;;2.77;1.80;;;21.10;99.00;;;21.32;46.97;101162.09;4915875;28;96971;-51
2023/06/17 03:21:45;;;;;;;2.93;1.77;;;21.00;99.20;;;21.33;46.87;101155.75;4936182;28;98117;-47
2023/06/17 03:24:11;;;;;;;4.07;2.30;;;21.10;99.20;;;21.35;46.89;101148.44;4917888;28;97174;-49
2023/06/17 03:26:37;;;;;;;2.00;1.67;;;21.10;98.60;;;21.36;46.99;101150.16;4909842;28;98304;-51
2023/06/17 03:29:04;;;;;;;2.93;1.87;;;21.10;99.10;;;21.37;46.91;101143.81;4918603;28;97051;-49
2023/06/17 03:31:30;;;;;;;3.17;2.10;;;21.20;99.20;;;21.37;46.79;101158.09;4926334;28;97528;-48
2023/06/17 03:33:56;;;;;;;2.83;1.73;;;21.20;98.90;;;21.38;46.94;101148.22;4915029;28;97074;-53
2023/06/17 03:36:25;;;;;;;3.37;1.60;;;21.20;99.10;;;21.39;46.91;101147.22;4923583;28;96833;-48
2023/06/17 03:38:51;;;;;;;2.90;1.83;;;21.20;99.10;;;21.39;46.64;101147.22;4911306;28;97131;-51
2023/06/17 03:41:17;;;;;;;1.53;1.43;;;21.20;99.10;;;21.41;46.86;101156.06;4911729;28;96611;-50
2023/06/17 03:43:43;;;;;;;2.43;1.90;;;21.20;99.20;;;21.43;46.88;101151.44;4923242;28;97261;-48
2023/06/17 03:46:09;;;;;;;2.23;1.47;;;21.30;99.00;;;21.47;46.81;101149.38;4933783;28;96629;-51
2023/06/17 03:48:35;;;;;;;3.00;1.87;;;21.30;99.00;;;21.47;46.81;101147.53;4929817;28;97170;-51
2023/06/17 03:51:02;;;;;;;1.83;1.60;;;21.30;98.90;;;21.50;46.72;101146.44;4923543;28;97589;-50
2023/06/17 03:53:29;;;;;;;2.43;1.70;;;21.40;98.90;;;21.51;46.63;101143.66;4925369;28;97258;-48
2023/06/17 03:55:55;;;;;;;2.33;1.73;;;21.40;98.90;;;21.53;46.52;101146.22;4925377;28;97149;-48
2023/06/17 03:58:21;;;;;;;2.90;2.33;;;21.40;98.80;;;21.52;46.55;101141.81;4927464;28;97384;-50
2023/06/17 04:00:49;;;;;;;2.63;1.60;;;21.40;98.70;;;21.50;46.69;101144.63;4926016;28;97550;-48
2023/06/17 04:03:15;;;;;;;2.40;2.10;;;21.30;98.70;;;21.48;46.57;101146.56;4917386;28;97648;-47
2023/06/17 04:05:42;;;;;;;3.93;2.53;;;21.30;98.20;;;21.44;46.62;101139.72;4924500;28;97067;-50
2023/06/17 04:08:08;;;;;;;4.20;2.90;;;21.20;98.30;;;21.37;46.57;101141.13;4919564;28;97401;-47
2023/06/17 04:10:34;;;;;;;6.57;2.70;;;21.10;98.20;;;21.31;46.84;101144.28;4911133;28;96887;-49
2023/06/17 04:13:01;;;;;;;2.43;2.10;;;21.00;98.70;;;21.25;47.17;101140.19;4922960;28;97385;-51
2023/06/17 04:15:27;;;;;;;2.17;1.60;;;20.90;99.60;;;21.23;47.12;101141.25;4926526;22;96802;-51
2023/06/17 04:17:52;;;;;;;4.50;3.03;;;20.90;99.40;;;21.20;46.99;101136.97;4915081;28;97023;-50
2023/06/17 04:20:19;;;;;;;3.60;3.13;;;20.80;99.10;;;21.17;47.06;101136.34;4929075;28;121206;-49
2023/06/17 04:22:45;;;;;;;4.97;2.67;;;20.80;99.00;;;21.13;47.47;101134.84;4912884;28;97133;-51
2023/06/17 04:25:13;;;;;;;2.60;1.93;;;20.70;99.40;;;21.10;47.48;101142.13;4913369;28;96599;-52
2023/06/17 04:27:39;;;;;;;3.10;2.13;;;20.70;99.90;;;21.12;47.59;101138.47;4912298;28;96744;-50
2023/06/17 04:30:09;;;;;;;3.13;1.70;;;20.70;99.90;;;21.17;47.72;101147.06;4924375;28;97931;-50
2023/06/17 04:32:38;;;;;;;2.17;1.77;;;20.80;99.90;;;21.20;47.47;101149.50;4928287;28;97156;-52
2023/06/17 04:35:05;;;;;;;2.10;1.67;;;20.90;99.70;;;21.22;47.32;101142.22;4916950;28;97525;-51
2023/06/17 04:37:32;;;;;;;2.67;2.23;;;21.00;99.40;;;21.21;46.91;101140.50;4928106;28;97452;-50
2023/06/17 04:39:59;;;;;;;3.60;2.83;;;20.90;98.90;;;21.18;47.35;101140.72;4933186;28;98404;-52
2023/06/17 04:45:01;;;;;;;2.73;1.67;;;20.70;99.90;;;21.10;47.70;101142.13;5177246;22;98031;-49
2023/06/17 04:47:28;;;;;;;2.80;2.07;;;20.80;99.90;;;21.13;47.53;101132.16;4945185;28;97034;-48
2023/06/17 04:49:55;;;;;;;1.80;1.60;;;20.80;99.90;;;21.18;47.71;101135.38;4921149;28;97355;-50
2023/06/17 04:52:24;;;;;;;1.80;1.50;;;20.90;99.90;;;21.24;47.44;101134.91;4943921;28;97118;-50
2023/06/17 04:54:51;;;;;;;3.20;2.00;;;21.00;99.80;;;21.30;47.12;101134.50;4941049;28;97069;-48
2023/06/17 04:57:18;;;;;;;2.00;1.67;;;21.10;99.70;;;21.36;47.00;101139.41;4948719;28;97164;-48
2023/06/17 04:59:44;;;;;;;2.03;1.60;;;21.20;99.60;;;21.39;47.02;101141.88;4931569;28;97175;-48
2023/06/17 05:02:10;;;;;;;2.40;1.87;;;21.30;99.40;;;21.45;47.05;101137.91;4947374;28;97364;-46
2023/06/17 05:04:36;;;;;;;2.83;2.00;;;21.30;99.30;;;21.48;46.70;101143.88;4953923;28;97329;-45
2023/06/17 05:07:02;;;;;;;2.50;1.90;;;21.30;99.20;;;21.51;46.75;101146.34;4950241;28;96857;-48
2023/06/17 05:09:28;;;;;;;3.27;1.77;;;21.40;99.20;;;21.54;46.73;101143.41;4952210;28;99131;-46
2023/06/17 05:11:53;;;;;;;3.20;2.27;;;21.40;99.00;;;21.54;46.70;101143.41;4951597;28;116379;-46
2023/06/17 05:14:19;;;;;;;2.83;2.00;;;21.50;99.00;;;21.59;46.30;101140.41;4950731;28;96813;-51
2023/06/17 05:16:45;;;;;;;1.90;1.63;;;21.50;98.70;;;21.58;46.56;101139.56;4948436;28;97255;-48
2023/06/17 05:19:11;;;;;;;2.43;2.07;;;21.50;98.90;;;21.57;46.50;101140.53;4954269;28;115662;-46
2023/06/17 05:21:37;;;;;;;2.70;1.93;;;21.50;98.90;;;21.59;46.52;101146.63;4936813;28;119464;-45
2023/06/17 05:24:03;;;;;;;3.27;2.50;;;21.50;98.80;;;21.59;46.30;101145.78;4950205;28;96692;-50
2023/06/17 05:26:28;;;;;;;3.23;2.20;;;21.50;98.60;;;21.57;46.68;101147.72;4947533;28;100530;-47
2023/06/17 05:28:54;;;;;;;2.73;2.00;;;21.50;98.80;;;21.59;46.64;101157.38;4953448;28;99860;-46
2023/06/17 05:31:20;;;;;;;2.37;1.90;;;21.60;98.80;;;21.58;46.34;101150.28;4959449;28;97130;-47
2023/06/17 05:33:46;;;;;;;3.93;2.83;;;21.60;98.80;;;21.59;46.15;101141.28;4956133;28;97230;-46
2023/06/17 05:36:12;;;;;;;2.60;2.07;;;21.60;98.20;;;21.57;46.44;101148.59;4948390;28;98115;-47
2023/06/17 05:38:38;;;;;;;2.40;1.97;;;21.50;98.50;;;21.59;46.58;101152.00;4951092;28;97561;-48
2023/06/17 05:41:04;;;;;;;3.07;1.97;;;21.50;98.90;;;21.60;46.33;101151.03;4946272;28;97100;-46
2023/06/17 05:43:29;;;;;;;3.47;2.63;;;21.50;98.80;;;21.63;46.15;101148.13;4932584;28;97022;-46
2023/06/17 05:45:55;;;;;;;2.20;1.83;;;21.60;98.60;;;21.62;46.43;101154.47;4957359;28;97137;-46
2023/06/17 05:48:21;;;;;;;6.73;3.30;;;21.60;98.70;;;21.65;45.00;101151.53;4939955;28;100815;-46
2023/06/17 05:50:47;;;;;;;4.67;3.13;;;21.60;97.80;;;21.61;45.37;101155.44;4953914;28;97054;-47
2023/06/17 05:53:12;;;;;;;4.47;3.30;;;21.50;97.90;;;21.55;44.30;101157.69;4961386;28;97405;-46
2023/06/17 05:55:38;;;;;;;3.03;2.43;;;21.40;97.50;;;21.52;46.62;101156.09;4954674;28;96944;-46
2023/06/17 05:58:04;;;;;;;2.77;2.43;;;21.30;99.10;;;21.53;46.54;101155.13;4951558;28;96650;-47
2023/06/17 06:00:30;;;;;;;3.37;2.63;;;21.40;99.00;;;21.51;46.52;101162.44;4949047;28;97197;-49
2023/06/17 06:02:56;;;;;;;1.73;1.50;;;21.40;99.00;;;21.53;46.69;101165.88;4946385;28;110266;-45
2023/06/17 06:05:22;;;;;;;2.93;2.00;;;21.40;99.00;;;21.57;46.68;101162.00;4959593;28;96896;-46
2023/06/17 06:07:49;;;;;;;5.40;3.30;;;21.50;98.90;;;21.64;46.31;101162.41;4933678;28;97027;-49
2023/06/17 06:10:15;;;;;;;3.77;2.10;;;21.60;98.50;;;21.63;46.02;101158.84;4949427;28;96946;-50
2023/06/17 06:12:41;;;;;;;4.00;2.00;;;21.50;98.50;;;21.64;45.98;101159.72;4962004;28;96820;-46
2023/06/17 06:15:07;;;;;;;3.67;2.40;;;21.50;98.50;;;21.61;46.14;101160.81;4948449;28;97387;-46
2023/06/17 06:17:33;;;;;;;2.63;1.97;;;21.50;98.80;;;21.61;46.46;101166.16;4948200;28;96849;-46
2023/06/17 06:19:59;;;;;;;9.03;4.70;;;21.50;98.90;;;21.64;45.87;101165.94;4950872;28;106598;-45
2023/06/17 06:22:25;;;;;;;3.40;2.13;;;21.50;98.30;;;21.62;46.33;101162.50;4953121;28;96832;-45
2023/06/17 06:24:51;;;;;;;2.37;1.93;;;21.50;98.80;;;21.60;46.56;101161.78;4924978;28;97272;-45
2023/06/17 06:27:17;;;;;;;4.60;2.47;;;21.60;98.90;;;21.63;46.50;101158.84;4939809;28;99425;-45
2023/06/17 06:29:42;;;;;;;7.27;4.47;;;21.60;98.80;;;21.65;45.52;101151.53;4936113;28;96893;-46
2023/06/17 06:32:08;;;;;;;2.40;2.00;;;21.60;98.20;;;21.66;46.36;101158.63;4955623;28;102524;-45
2023/06/17 06:34:37;;;;;;;11.00;5.23;;;21.60;98.70;;;21.69;45.66;101154.84;4958002;28;96560;-47
2023/06/17 06:37:02;;;;;;;6.77;4.47;;;21.60;98.30;;;21.63;46.11;101164.22;4953984;28;103993;-45
2023/06/17 06:39:30;;;;;;;5.87;2.60;;;21.50;98.70;;;21.62;46.33;101165.19;4963735;28;117328;-48
2023/06/17 06:41:56;;;;;;;6.50;4.07;;;21.50;99.00;;;21.65;46.28;101166.78;4965068;28;96667;-45
2023/06/17 06:44:21;;;;;;;11.50;5.33;;;21.50;98.90;;;21.59;45.67;101168.13;4950763;28;97124;-48
2023/06/17 06:46:47;;;;;;;15.17;5.50;;;21.40;98.50;;;21.56;46.31;101167.50;4954456;28;125118;-45
2023/06/17 06:49:13;;;;;;;6.80;4.77;;;21.40;99.00;;;21.56;46.36;101160.28;4955756;28;97396;-46
2023/06/17 06:51:39;;;;;;;7.57;4.83;;;21.40;99.00;;;21.54;46.17;101170.25;4954659;28;97441;-46
2023/06/17 06:54:05;;;;;;;11.43;4.63;;;21.40;98.80;;;21.51;47.34;101175.84;4954007;28;97128;-45
2023/06/17 06:56:31;;;;;;;7.17;4.20;;;21.30;99.80;;;21.46;45.34;101171.81;4959031;28;98934;-46
2023/06/17 06:58:57;;;;;;;8.97;4.47;;;21.30;98.30;;;21.47;44.45;101174.38;4958594;28;97189;-46
2023/06/17 07:01:26;;;;;;;9.33;5.10;;;21.20;97.60;;;21.50;45.60;101178.66;4953614;28;97279;-47
2023/06/17 07:03:52;;;;;;;8.37;5.30;;;21.30;98.40;;;21.48;45.41;101170.72;4955189;28;96888;-45
2023/06/17 07:06:18;;;;;;;7.13;4.73;;;21.30;98.20;;;21.51;45.94;101170.50;4950388;28;96959;-45
2023/06/17 07:08:44;;;;;;;10.93;5.13;;;21.30;98.50;;;21.54;45.09;101180.13;4950431;28;99077;-45
2023/06/17 07:11:10;;;;;;;6.30;4.60;;;21.40;98.00;;;21.56;45.63;101178.22;4953257;28;96794;-47
2023/06/17 07:13:36;;;;;;;10.00;4.60;;;21.40;98.50;;;21.59;44.45;101178.84;4938878;28;97001;-45
2023/06/17 07:16:02;;;;;;;6.30;4.77;;;21.40;97.90;;;21.59;45.68;101173.47;4944801;28;97329;-57
2023/06/17 07:18:28;;;;;;;9.20;3.93;;;21.40;98.40;;;21.64;46.22;101176.69;4947511;28;97036;-49
2023/06/17 07:20:53;;;;;;;7.13;4.60;;;21.50;98.80;;;21.68;45.57;101172.78;4950476;28;97017;-48
2023/06/17 07:23:19;;;;;;;6.50;3.63;;;21.60;98.30;;;21.73;44.70;101174.28;4940760;28;102928;-47
2023/06/17 07:25:45;;;;;;;9.43;4.00;;;21.60;97.90;;;21.75;45.00;101164.28;4957433;28;97709;-48
2023/06/17 07:28:12;;;;;;;6.27;4.10;;;21.70;97.80;;;21.80;45.53;101172.84;4948634;28;105614;-50
2023/06/17 07:30:38;;;;;;;8.57;5.07;;;21.70;98.30;;;21.82;45.97;101173.59;4951030;28;97181;-46
2023/06/17 07:33:05;;;;;;;7.50;4.83;;;21.70;98.60;;;21.81;45.36;101172.72;4954593;28;97696;-56
2023/06/17 07:35:31;;;;;;;9.57;4.30;;;21.70;98.10;;;21.82;45.36;101173.59;4945623;28;97315;-47
2023/06/17 07:37:56;;;;;;;7.70;5.00;;;21.80;98.20;;;21.87;45.41;101172.28;4942880;28;97048;-48
2023/06/17 07:40:22;;;;;;;7.87;4.30;;;21.80;98.20;;;21.91;45.49;101167.53;4950503;28;97482;-50
2023/06/17 07:42:48;;;;;;;9.33;4.87;;;21.80;98.20;;;21.95;45.48;101167.19;4956257;28;97027;-50
2023/06/17 07:45:15;;;;;;;8.10;4.27;;;21.90;98.30;;;22.00;45.57;101163.31;4949345;28;111238;-47
2023/06/17 07:47:41;;;;;;;6.53;4.33;;;21.90;98.30;;;22.04;45.29;101167.47;4932731;28;97380;-50
2023/06/17 07:50:10;;;;;;;6.03;2.87;;;22.00;98.00;;;22.04;45.31;101170.16;4947323;28;96704;-53
2023/06/17 07:52:36;;;;;;;7.97;4.63;;;22.00;98.00;;;22.08;44.28;101164.47;4952898;28;97322;-49
2023/06/17 07:55:08;;;;;;;7.63;4.13;;;22.00;97.10;;;22.10;44.70;101165.19;4959984;28;97182;-48
2023/06/17 07:57:34;;;;;;;7.03;3.43;;;22.10;97.40;;;22.14;44.17;101163.16;4945721;28;101998;-48
2023/06/17 08:00:00;;;;;;;7.33;3.60;;;22.10;97.00;;;22.17;44.71;101166.47;4958015;28;96803;-47
2023/06/17 08:02:26;;;;;;;8.47;3.47;;;22.20;97.50;;;22.18;44.13;101160.13;4940390;28;97236;-50
2023/06/17 08:04:52;;;;;;;3.63;2.47;;;22.20;97.00;;;22.15;44.97;101167.56;4950574;28;97193;-50
2023/06/17 08:07:20;;;;;;;4.70;3.53;;;22.20;97.60;;;22.17;44.39;101165.63;4952578;28;97212;-45
2023/06/17 08:09:46;;;;;;;5.23;3.57;;;22.10;96.90;;;22.19;43.08;101164.50;4952663;28;97063;-46
2023/06/17 08:12:12;;;;;;;5.50;3.40;;;22.20;96.40;;;22.25;42.20;101164.03;4948194;28;114370;-47
2023/06/17 08:14:37;;;;;;;5.40;3.30;;;22.20;95.20;;;22.23;43.75;101163.31;4948160;28;98466;-48
2023/06/17 08:17:04;;;;;;;4.97;3.40;;;22.20;96.20;;;22.17;44.16;101163.78;4948797;28;97371;-46
2023/06/17 08:19:30;;;;;;;4.93;2.83;;;22.20;96.80;;;22.21;41.13;101159.03;4949263;28;97256;-45
2023/06/17 08:21:56;;;;;;;4.33;3.03;;;22.20;94.50;;;22.24;38.93;101154.25;4957033;28;96948;-46
2023/06/17 08:24:24;;;;;;;7.80;2.83;;;22.30;92.80;;;22.26;43.21;101151.44;4936634;28;97527;-47
2023/06/17 08:26:52;;;;;;;4.57;3.23;;;22.30;95.70;;;22.33;38.23;101147.34;4947211;28;97476;-47
2023/06/17 08:29:18;;;;;;;9.27;3.13;;;22.30;91.90;;;22.43;37.77;101152.88;4954470;28;97108;-45
2023/06/17 08:31:47;;;;;;;4.33;2.23;;;22.40;91.20;;;22.52;36.00;101154.81;4949387;28;100027;-46
2023/06/17 08:34:13;;;;;;;3.33;2.60;;;22.50;89.60;;;22.55;35.61;101141.97;4948296;28;97159;-46
2023/06/17 08:36:46;;;;;;;3.10;2.10;;;22.50;88.70;;;22.61;35.42;101146.03;4949211;28;97765;-45
2023/06/17 08:39:12;;;;;;;4.47;2.60;;;22.60;87.00;;;22.64;34.46;101140.41;4939761;28;97226;-46
2023/06/17 08:41:42;;;;;;;4.63;2.93;;;22.60;85.60;;;22.65;40.10;101136.75;4951307;28;97237;-47
2023/06/17 08:44:12;;;;;;;3.57;2.27;;;22.70;92.40;;;22.59;40.73;101137.25;4951402;28;102966;-46
2023/06/17 08:46:40;;;;;;;2.87;2.27;;;22.60;93.20;;;22.48;42.57;101130.00;4955326;28;101212;-45
2023/06/17 08:49:12;;;;;;;3.90;3.27;;;22.50;94.70;;;22.46;42.99;101136.50;4941219;28;97529;-48
2023/06/17 08:51:39;;;;;;;4.63;2.83;;;22.50;95.20;;;22.51;39.42;101135.16;4940500;28;97238;-45
2023/06/17 08:54:06;;;;;;;5.07;2.50;;;22.50;92.40;;;22.52;40.18;101130.63;4938271;28;99087;-58
2023/06/17 08:56:32;;;;;;;3.40;2.43;;;22.50;93.20;;;22.50;42.50;101130.75;4933353;28;101057;-46
2023/06/17 08:58:58;;;;;;;3.70;2.73;;;22.50;94.60;;;22.53;37.17;101122.44;4958067;28;104203;-47
2023/06/17 09:01:25;;;;;;;6.00;3.37;;;22.50;90.50;;;22.63;36.58;101122.59;4948923;28;96633;-46
2023/06/17 09:03:53;;;;;;;4.47;2.63;;;22.60;89.90;;;22.68;38.19;101115.00;4958006;28;98798;-49
2023/06/17 09:06:28;;;;;;;5.50;2.73;;;22.70;91.50;;;22.71;37.93;101114.78;4948475;28;97140;-49
2023/06/17 09:08:56;;;;;;;2.70;2.07;;;22.70;91.30;;;22.60;41.63;101117.44;4955030;28;97178;-47
2023/06/17 09:11:32;;;;;;;3.03;2.07;;;22.70;93.90;;;22.39;43.02;101119.13;4951592;28;97271;-48
2023/06/17 09:14:00;;;;;;;2.73;2.33;;;22.50;94.90;;;22.21;44.01;101116.88;4946068;28;97499;-47
2023/06/17 09:16:35;;;;;;;4.80;2.40;;;22.40;95.70;;;22.18;44.15;101111.75;4932290;28;97388;-49
2023/06/17 09:19:04;;;;;;;2.80;2.00;;;22.30;96.10;;;22.18;41.68;101116.28;4943624;28;108903;-48
2023/06/17 09:21:31;;;;;;;4.23;2.17;;;22.20;93.70;;;22.37;41.81;101115.69;4949346;28;97333;-48
2023/06/17 09:23:59;;;;;;;4.47;2.30;;;22.40;94.00;;;22.30;42.97;101118.03;4941503;28;97556;-48
2023/06/17 09:26:40;;;;;;;5.03;2.77;;;22.40;95.30;;;22.30;43.60;101117.16;4952485;28;97055;-47
2023/06/17 09:29:13;;;;;;;3.10;2.23;;;22.40;95.40;;;22.15;43.87;101112.00;4957957;28;96704;-45
2023/06/17 09:31:52;;;;;;;3.53;2.70;;;22.30;95.80;;;22.33;38.63;101107.03;4957142;28;97919;-48
2023/06/17 09:34:19;;;;;;;2.80;2.20;;;22.40;92.60;;;22.50;35.85;101116.44;4961991;28;99136;-46
2023/06/17 09:36:46;;;;;;;2.93;2.37;;;22.50;88.60;;;22.64;35.82;101121.59;4929408;28;97525;-49
2023/06/17 09:39:13;;;;;;;5.37;3.03;;;22.70;87.80;;;22.81;38.30;101120.25;4931931;28;96747;-46
2023/06/17 09:41:43;;;;;;;5.30;3.10;;;22.90;89.30;;;22.64;40.88;101108.16;4960083;28;96992;-50
2023/06/17 09:44:11;;;;;;;4.97;2.97;;;22.80;93.20;;;22.67;38.86;101110.59;4955092;28;97081;-46
2023/06/17 09:46:39;;;;;;;4.87;3.70;;;22.70;92.00;;;22.73;40.88;101107.44;4945617;28;99699;-50
2023/06/17 09:49:11;;;;;;;5.77;4.10;;;22.80;93.00;;;22.81;41.03;101114.88;4952385;28;97341;-49
2023/06/17 09:51:39;;;;;;;4.63;3.17;;;22.90;92.60;;;22.66;41.58;101111.56;4947700;28;96958;-45
2023/06/17 09:54:06;;;;;;;4.63;3.73;;;22.80;93.70;;;22.64;42.43;101101.94;4947475;28;96786;-45
2023/06/17 09:56:34;;;;;;;5.93;3.70;;;22.70;94.10;;;22.62;42.69;101114.63;4954530;28;96834;-46
2023/06/17 09:59:01;;;;;;;3.87;2.43;;;22.70;94.70;;;22.57;42.79;101109.63;4958855;28;96769;-45
2023/06/17 10:01:39;;;;;;;4.97;2.93;;;22.70;94.60;;;22.55;42.86;101111.56;4954862;28;96583;-49
2023/06/17 10:04:09;;;;;;;6.30;3.53;;;22.60;94.50;;;22.64;42.97;101108.16;4938330;28;97213;-45
2023/06/17 10:06:38;;;;;;;6.13;3.73;;;22.70;94.20;;;22.68;40.48;101101.56;4946164;28;97434;-47
2023/06/17 10:09:11;;;;;;;4.37;3.03;;;22.70;91.90;;;22.73;40.62;101110.13;4950608;28;97192;-49
2023/06/17 10:11:41;;;;;;;4.73;3.13;;;22.80;93.00;;;22.75;39.89;101112.69;4953160;28;97403;-50
2023/06/17 10:14:12;;;;;;;4.63;2.87;;;22.80;91.50;;;22.75;41.41;101108.16;4950348;28;99973;-48